Time;durP1;ratioP1;P1;durP2;ratioP2;P2;SDS_P1;SDS_P2;PMS_P1;PMS_P2;Temp;Humidity;BMP_temperature;BMP_pressure;BME280_temperature;BME280_humidity;BME280_pressure;Samples;Min_cycle;Max_cycle;Signal;HPM_P1;HPM_P2
2021/07/21 00:00:53;;;;;;;35.58;31.38;;;;;;;14.68;nan;99216.44;2064262;28;20714;-74
2021/07/21 00:01:54;;;;;;;35.27;31.73;;;;;;;14.66;nan;99214.06;2064690;28;20593;-74
2021/07/21 00:02:56;;;;;;;36.80;32.92;;;;;;;14.65;nan;99223.22;2073353;28;20216;-74
2021/07/21 00:03:57;;;;;;;35.50;32.00;;;;;;;14.67;nan;99218.31;2073312;28;20294;-74
2021/07/21 00:04:58;;;;;;;33.70;30.45;;;;;;;14.72;nan;99227.34;2073220;28;20220;-74
2021/07/21 00:05:59;;;;;;;33.77;30.20;;;;;;;14.69;nan;99221.50;2073290;28;20222;-74
2021/07/21 00:07:01;;;;;;;34.50;30.75;;;;;;;14.71;nan;99221.19;2073318;28;20224;-74
2021/07/21 00:08:04;;;;;;;34.42;31.05;;;;;;;14.68;nan;99216.44;2064316;28;20228;-74
2021/07/21 00:09:05;;;;;;;33.65;29.33;;;;;;;14.72;nan;99217.38;2064747;28;20286;-74
2021/07/21 00:10:09;;;;;;;31.88;28.50;;;;;;;14.70;nan;99223.06;2073352;28;20235;-74
2021/07/21 00:13:49;;;;;;;34.13;30.52;;;;;;;14.73;nan;99218.16;2064311;28;20232;-74
2021/07/21 00:14:50;;;;;;;36.00;29.77;;;;;;;14.72;nan;99217.38;2064647;28;20726;-74
2021/07/21 00:15:59;;;;;;;38.73;34.30;;;;;;;14.69;nan;99218.03;2073347;28;20621;-74
2021/07/21 00:17:03;;;;;;;38.42;33.72;;;;;;;14.66;nan;99222.13;2072809;28;20232;-73
2021/07/21 00:18:16;;;;;;;40.00;34.28;;;;;;;14.70;nan;99215.03;2073231;28;20243;-74
2021/07/21 00:20:37;;;;;;;39.72;32.75;;;;;;;14.72;nan;99216.59;2072779;28;20662;-73
2021/07/21 00:21:38;;;;;;;37.42;32.05;;;;;;;14.69;nan;99216.13;2073306;28;20579;-74
2021/07/21 00:22:41;;;;;;;37.60;32.60;;;;;;;14.69;nan;99218.03;2064301;28;20237;-73
2021/07/21 00:23:43;;;;;;;38.92;33.25;;;;;;;14.67;nan;99225.59;2064797;28;20239;-74
2021/07/21 00:24:45;;;;;;;36.63;32.70;;;;;;;14.69;nan;99218.03;2073293;28;20357;-74
2021/07/21 00:25:46;;;;;;;39.97;33.47;;;;;;;14.67;nan;99217.53;2073319;28;20227;-74
2021/07/21 00:26:47;;;;;;;37.33;31.95;;;;;;;14.66;nan;99218.66;2073165;28;20216;-74
2021/07/21 00:27:48;;;;;;;35.35;31.50;;;;;;;14.65;nan;99217.84;2072490;28;20706;-73
2021/07/21 00:28:50;;;;;;;43.00;32.60;;;;;;;14.66;nan;99213.28;2072695;28;20579;-74
2021/07/21 00:29:51;;;;;;;38.38;32.20;;;;;;;14.66;nan;99224.03;2063995;28;20225;-74
2021/07/21 00:30:52;;;;;;;36.17;32.27;;;;;;;14.72;nan;99216.59;2064216;28;20221;-74
2021/07/21 00:31:53;;;;;;;34.97;31.05;;;;;;;14.76;nan;99220.22;2073198;28;20232;-74
2021/07/21 00:32:55;;;;;;;35.70;31.90;;;;;;;14.74;nan;99230.50;2064410;28;20221;-74
2021/07/21 00:33:56;;;;;;;41.88;31.50;;;;;;;14.73;nan;99229.69;2064150;28;20240;-74
2021/07/21 00:34:58;;;;;;;33.80;30.40;;;;;;;14.69;nan;99218.81;2056431;28;20236;-74
2021/07/21 00:35:58;;;;;;;40.15;32.25;;;;;;;14.74;nan;99225.13;2064290;28;20225;-74
2021/07/21 00:37:00;;;;;;;33.97;30.47;;;;;;;14.71;nan;99231.91;2064327;28;20233;-74
2021/07/21 00:38:00;;;;;;;36.08;31.40;;;;;;;14.69;nan;99221.50;2056451;28;20688;-74
2021/07/21 00:39:04;;;;;;;35.40;31.00;;;;;;;14.68;nan;99227.16;2056335;28;20253;-73
2021/07/21 00:40:08;;;;;;;34.25;30.70;;;;;;;14.67;nan;99221.00;2056580;28;20233;-74
2021/07/21 00:41:10;;;;;;;38.08;29.85;;;;;;;14.65;nan;99227.81;2056134;28;20660;-74
2021/07/21 00:42:10;;;;;;;34.95;31.02;;;;;;;14.67;nan;99230.97;2056403;28;20229;-73
2021/07/21 00:43:13;;;;;;;34.65;30.85;;;;;;;14.65;nan;99225.13;2064370;28;20666;-73
2021/07/21 00:44:15;;;;;;;34.97;30.58;;;;;;;14.67;nan;99236.34;2064331;28;20229;-73
2021/07/21 00:45:22;;;;;;;34.92;30.40;;;;;;;14.67;nan;99231.75;2065052;28;20221;-74
2021/07/21 00:46:24;;;;;;;33.65;30.05;;;;;;;14.68;nan;99230.66;2072029;28;20231;-73
2021/07/21 00:47:27;;;;;;;33.70;30.15;;;;;;;14.67;nan;99236.34;2063122;28;20299;-73
2021/07/21 00:48:28;;;;;;;39.10;30.88;;;;;;;14.68;nan;99236.03;2055895;28;20217;-73
2021/07/21 00:49:30;;;;;;;36.43;30.20;;;;;;;14.73;nan;99232.38;2056235;28;20229;-73
2021/07/21 00:50:31;;;;;;;33.50;29.67;;;;;;;14.75;nan;99227.47;2064465;28;20232;-74
2021/07/21 00:51:32;;;;;;;36.13;30.50;;;;;;;14.77;nan;99230.66;2064340;28;20221;-73
2021/07/21 00:52:35;;;;;;;35.63;29.55;;;;;;;14.80;nan;99223.84;2064347;28;20236;-73
2021/07/21 00:53:36;;;;;;;35.63;28.73;;;;;;;14.83;nan;99231.25;2064209;28;20227;-73
2021/07/21 00:54:40;;;;;;;40.22;29.40;;;;;;;14.82;nan;99230.47;2064104;28;20228;-73
2021/07/21 00:55:42;;;;;;;34.22;28.30;;;;;;;14.83;nan;99220.50;2064118;28;20283;-73
2021/07/21 00:56:46;;;;;;;32.85;27.67;;;;;;;14.80;nan;99231.91;2064193;28;20221;-73
2021/07/21 00:57:47;;;;;;;32.20;28.85;;;;;;;14.80;nan;99231.91;2064153;28;20279;-73
2021/07/21 00:58:48;;;;;;;31.05;27.92;;;;;;;14.82;nan;99230.47;2056281;28;20313;-73
2021/07/21 00:59:50;;;;;;;31.00;27.83;;;;;;;14.84;nan;99230.94;2056192;28;20225;-73
2021/07/21 01:00:53;;;;;;;38.45;29.33;;;;;;;14.84;nan;99227.47;2064509;28;20710;-73
2021/07/21 01:01:55;;;;;;;35.08;27.48;;;;;;;14.85;nan;99220.97;2063939;28;20279;-73
2021/07/21 01:02:56;;;;;;;36.78;28.83;;;;;;;14.86;nan;99233.31;2055735;28;20228;-73
2021/07/21 01:03:57;;;;;;;37.93;29.20;;;;;;;14.86;nan;99234.09;2064298;28;20691;-73
2021/07/21 01:04:58;;;;;;;39.17;29.27;;;;;;;14.87;nan;99230.31;2072292;28;20228;-73
2021/07/21 01:06:01;;;;;;;32.30;28.80;;;;;;;14.87;nan;99229.53;2072489;28;20691;-73
2021/07/21 01:07:05;;;;;;;33.90;29.58;;;;;;;14.94;nan;99230.63;2072245;28;20215;-74
2021/07/21 01:08:07;;;;;;;34.55;28.85;;;;;;;14.95;nan;99231.41;2064218;28;20251;-75
2021/07/21 01:09:17;;;;;;;37.17;29.33;;;;;;;14.96;nan;99231.06;2065394;28;20582;-75
2021/07/21 01:10:31;;;;;;;31.58;28.13;;;;;;;14.94;nan;99224.44;2063768;28;20565;-75
2021/07/21 01:11:34;;;;;;;35.28;28.75;;;;;;;14.96;nan;99227.59;2056276;28;20221;-75
2021/07/21 01:12:38;;;;;;;33.85;29.15;;;;;;;14.96;nan;99220.34;2064642;28;20703;-75
2021/07/21 01:13:47;;;;;;;32.45;28.98;;;;;;;14.95;nan;99226.03;2063726;28;20721;-75
2021/07/21 01:15:05;;;;;;;37.17;29.42;;;;;;;14.93;nan;99229.00;2065433;28;20224;-75
2021/07/21 01:16:10;;;;;;;30.88;27.67;;;;;;;14.92;nan;99226.66;2063443;28;20261;-74
2021/07/21 01:17:16;;;;;;;30.60;27.48;;;;;;;14.94;nan;99225.25;2056503;28;20225;-74
2021/07/21 01:18:30;;;;;;;31.42;28.33;;;;;;;14.93;nan;99217.47;2056763;28;20719;-75
2021/07/21 01:19:50;;;;;;;31.63;28.38;;;;;;;14.93;nan;99228.22;2057349;28;20221;-75
2021/07/21 01:21:06;;;;;;;36.00;28.90;;;;;;;14.89;nan;99221.94;2057968;28;20237;-73
2021/07/21 01:22:14;;;;;;;30.85;27.55;;;;;;;14.89;nan;99221.94;2057574;28;20293;-72
2021/07/21 01:23:36;;;;;;;35.15;27.50;;;;;;;14.92;nan;99222.06;2057358;28;20245;-73
2021/07/21 01:25:07;;;;;;;31.58;28.20;;;;;;;14.88;nan;99221.13;2066113;28;20231;-73
2021/07/21 01:26:16;;;;;;;31.02;27.77;;;;;;;14.88;nan;99223.03;2064367;28;20231;-73
2021/07/21 01:27:29;;;;;;;30.20;27.15;;;;;;;14.87;nan;99224.16;2064102;28;20228;-73
2021/07/21 01:28:32;;;;;;;30.42;27.08;;;;;;;14.88;nan;99220.34;2056633;28;20255;-73
2021/07/21 01:29:34;;;;;;;30.85;27.85;;;;;;;14.86;nan;99227.94;2064269;28;20295;-73
2021/07/21 01:30:37;;;;;;;31.35;28.20;;;;;;;14.83;nan;99217.81;2063843;28;20567;-73
2021/07/21 01:31:41;;;;;;;31.77;28.10;;;;;;;14.86;nan;99223.38;2063480;28;20283;-73
2021/07/21 01:32:45;;;;;;;31.30;27.33;;;;;;;14.83;nan;99223.97;2071828;28;20744;-73
2021/07/21 01:33:47;;;;;;;31.23;27.95;;;;;;;14.83;nan;99223.97;2072757;28;20331;-73
2021/07/21 01:34:50;;;;;;;37.92;29.00;;;;;;;14.82;nan;99227.00;2064015;28;20275;-73
2021/07/21 01:35:54;;;;;;;31.85;27.30;;;;;;;14.81;nan;99220.03;2063792;28;20312;-73
2021/07/21 01:36:58;;;;;;;29.92;26.80;;;;;;;14.82;nan;99221.63;2064299;28;20240;-72
2021/07/21 01:38:04;;;;;;;30.08;26.92;;;;;;;14.80;nan;99219.25;2063958;28;20225;-73
2021/07/21 01:39:08;;;;;;;31.20;27.15;;;;;;;14.80;nan;99216.56;2064627;28;20229;-73
2021/07/21 01:40:17;;;;;;;32.75;26.88;;;;;;;14.81;nan;99225.41;2063542;28;20229;-73
2021/07/21 01:41:19;;;;;;;29.83;26.92;;;;;;;14.79;nan;99219.59;2056625;28;20622;-74
2021/07/21 01:42:23;;;;;;;32.58;27.70;;;;;;;14.79;nan;99223.06;2064158;28;20233;-73
2021/07/21 01:43:28;;;;;;;31.38;26.63;;;;;;;14.78;nan;99209.94;2063516;28;20272;-74
2021/07/21 01:44:32;;;;;;;33.30;27.83;;;;;;;14.76;nan;99212.16;2056205;28;20232;-74
2021/07/21 01:45:35;;;;;;;30.80;27.58;;;;;;;14.78;nan;99221.47;2064016;28;20221;-75
2021/07/21 01:46:37;;;;;;;30.85;27.55;;;;;;;14.80;nan;99219.25;2063915;28;20247;-74
2021/07/21 01:47:39;;;;;;;29.92;26.85;;;;;;;14.77;nan;99213.72;2063400;28;20331;-74
2021/07/21 01:48:46;;;;;;;31.50;27.60;;;;;;;14.79;nan;99222.28;2056165;28;20225;-74
2021/07/21 01:49:48;;;;;;;31.23;27.90;;;;;;;14.76;nan;99206.78;2056289;28;20225;-74
2021/07/21 01:50:52;;;;;;;30.67;27.58;;;;;;;14.75;nan;99218.63;2055951;28;20676;-75
2021/07/21 01:51:55;;;;;;;31.55;28.25;;;;;;;14.74;nan;99222.44;2063346;28;20307;-74
2021/07/21 01:52:59;;;;;;;31.65;28.35;;;;;;;14.71;nan;99210.44;2063896;28;20305;-74
2021/07/21 01:54:00;;;;;;;38.17;27.05;;;;;;;14.71;nan;99210.44;2072025;28;20286;-74
2021/07/21 01:55:05;;;;;;;31.40;28.42;;;;;;;14.71;nan;99215.81;2072632;28;20227;-74
2021/07/21 01:56:13;;;;;;;31.50;28.15;;;;;;;14.74;nan;99214.38;2063395;28;20587;-73
2021/07/21 01:57:16;;;;;;;30.15;27.00;;;;;;;14.74;nan;99214.38;2055982;28;20232;-74
2021/07/21 01:58:29;;;;;;;30.98;27.88;;;;;;;14.73;nan;99212.78;2056457;28;20225;-74
2021/07/21 01:59:42;;;;;;;29.05;26.15;;;;;;;14.71;nan;99207.75;2064645;28;20228;-74
2021/07/21 02:00:50;;;;;;;29.17;26.23;;;;;;;14.74;nan;99204.41;2063777;28;20228;-74
2021/07/21 02:01:52;;;;;;;30.30;26.13;;;;;;;14.75;nan;99211.34;2063762;28;20227;-74
2021/07/21 02:03:08;;;;;;;28.98;25.83;;;;;;;14.75;nan;99218.63;2065252;28;20594;-73
2021/07/21 02:04:18;;;;;;;28.38;25.40;;;;;;;14.74;nan;99215.16;2063394;28;20255;-74
2021/07/21 02:05:20;;;;;;;29.15;25.33;;;;;;;14.75;nan;99219.41;2055790;28;20739;-74
2021/07/21 02:06:21;;;;;;;28.27;25.60;;;;;;;14.76;nan;99215.63;2055934;28;20309;-73
2021/07/21 02:07:25;;;;;;;34.67;26.00;;;;;;;14.78;nan;99220.69;2063543;28;20225;-74
2021/07/21 02:08:28;;;;;;;28.10;25.42;;;;;;;14.76;nan;99217.53;2063750;28;20291;-73
2021/07/21 02:09:46;;;;;;;27.75;25.05;;;;;;;14.76;nan;99222.88;2057052;28;20221;-74
2021/07/21 02:10:53;;;;;;;31.83;25.45;;;;;;;14.76;nan;99228.25;2064699;28;20251;-73
2021/07/21 02:11:57;;;;;;;32.30;25.73;;;;;;;14.77;nan;99227.97;2071594;28;20303;-73
2021/07/21 02:13:02;;;;;;;32.40;25.88;;;;;;;14.76;nan;99222.88;2063667;28;20221;-73
2021/07/21 02:14:11;;;;;;;27.67;24.85;;;;;;;14.77;nan;99227.16;2064233;28;20271;-73
2021/07/21 02:15:40;;;;;;;27.55;24.92;;;;;;;14.75;nan;99226.69;2068469;28;20219;-73
2021/07/21 02:16:45;;;;;;;28.42;25.42;;;;;;;14.74;nan;99227.81;2063629;28;20248;-74
2021/07/21 02:17:54;;;;;;;33.03;26.58;;;;;;;14.76;nan;99230.94;2056344;28;20218;-73
2021/07/21 02:18:58;;;;;;;28.77;25.48;;;;;;;14.74;nan;99228.59;2063723;28;20220;-73
2021/07/21 02:20:09;;;;;;;28.77;25.45;;;;;;;14.73;nan;99226.22;2064340;28;20235;-73
2021/07/21 02:21:18;;;;;;;28.13;24.95;;;;;;;14.73;nan;99228.91;2063632;28;20723;-73
2021/07/21 02:22:21;;;;;;;30.38;25.10;;;;;;;14.77;nan;99229.84;2055632;28;20226;-74
2021/07/21 02:23:39;;;;;;;28.42;25.73;;;;;;;14.76;nan;99229.06;2065583;28;20224;-73
2021/07/21 02:25:21;;;;;;;27.33;24.48;;;;;;;14.77;nan;99219.09;2071562;28;20224;-74
2021/07/21 02:26:22;;;;;;;27.13;24.27;;;;;;;14.75;nan;99229.38;2070914;28;20718;-73
2021/07/21 02:27:26;;;;;;;28.23;25.30;;;;;;;14.76;nan;99229.06;2063472;28;20289;-73
2021/07/21 02:28:29;;;;;;;34.25;25.30;;;;;;;14.73;nan;99232.38;2063777;28;20232;-74
2021/07/21 02:29:34;;;;;;;29.63;24.80;;;;;;;14.72;nan;99225.44;2063516;28;20228;-74
2021/07/21 02:30:35;;;;;;;27.30;23.98;;;;;;;14.76;nan;99233.63;2063599;28;20316;-74
2021/07/21 02:31:41;;;;;;;26.75;24.23;;;;;;;14.76;nan;99229.06;2063442;28;20248;-72
2021/07/21 02:32:47;;;;;;;27.48;24.77;;;;;;;14.77;nan;99229.84;2063494;28;20278;-74
2021/07/21 02:33:55;;;;;;;27.77;24.98;;;;;;;14.78;nan;99228.75;2063548;28;20220;-73
2021/07/21 02:34:59;;;;;;;28.88;25.92;;;;;;;14.77;nan;99227.16;2056326;28;20225;-74
2021/07/21 02:36:04;;;;;;;27.58;24.25;;;;;;;14.74;nan;99231.28;2063317;28;20784;-74
2021/07/21 02:37:05;;;;;;;28.10;25.17;;;;;;;14.74;nan;99235.84;2071749;28;20576;-73
2021/07/21 02:38:15;;;;;;;27.30;24.60;;;;;;;14.76;nan;99228.25;2071419;28;20266;-73
2021/07/21 02:39:22;;;;;;;29.50;24.95;;;;;;;14.76;nan;99230.94;2063105;28;20228;-73
2021/07/21 02:40:24;;;;;;;27.83;25.13;;;;;;;14.73;nan;99232.38;2063566;28;20232;-74
2021/07/21 02:41:42;;;;;;;28.63;25.83;;;;;;;14.76;nan;99228.25;2063086;28;20978;-73
2021/07/21 02:42:45;;;;;;;27.10;24.70;;;;;;;14.75;nan;99232.06;2064042;28;20232;-73
2021/07/21 02:43:46;;;;;;;27.95;24.98;;;;;;;14.77;nan;99227.16;2063477;28;20691;-73
2021/07/21 02:44:51;;;;;;;27.70;24.98;;;;;;;14.77;nan;99221.78;2055469;28;20221;-73
2021/07/21 02:45:53;;;;;;;28.85;25.95;;;;;;;14.75;nan;99221.31;2063619;28;20244;-73
2021/07/21 02:46:54;;;;;;;28.33;25.38;;;;;;;14.74;nan;99231.28;2063352;28;20224;-73
2021/07/21 02:47:55;;;;;;;28.73;24.85;;;;;;;14.75;nan;99224.00;2063407;28;20576;-74
2021/07/21 02:48:58;;;;;;;31.30;24.97;;;;;;;14.74;nan;99227.81;2071831;28;20645;-73
2021/07/21 02:50:01;;;;;;;27.67;24.70;;;;;;;14.70;nan;99225.75;2071660;28;20725;-73
2021/07/21 02:51:10;;;;;;;27.92;25.10;;;;;;;14.69;nan;99234.94;2063425;28;20703;-74
2021/07/21 02:52:21;;;;;;;28.90;25.63;;;;;;;14.66;nan;99227.50;2056390;28;20267;-73
2021/07/21 02:53:31;;;;;;;30.77;25.50;;;;;;;14.63;nan;99230.81;2056080;28;20229;-73
2021/07/21 02:54:58;;;;;;;28.23;25.67;;;;;;;14.67;nan;99241.72;2066578;28;20220;-74
2021/07/21 02:56:03;;;;;;;27.60;24.98;;;;;;;14.67;nan;99231.75;2062923;28;20237;-74
2021/07/21 02:57:11;;;;;;;30.10;26.85;;;;;;;14.68;nan;99238.72;2062796;28;20224;-73
2021/07/21 02:58:21;;;;;;;29.48;26.42;;;;;;;14.65;nan;99238.56;2062760;28;20674;-74
2021/07/21 02:59:36;;;;;;;31.33;26.88;;;;;;;14.62;nan;99245.38;2064708;28;20318;-74
2021/07/21 03:00:39;;;;;;;31.45;27.10;;;;;;;14.61;nan;99243.00;2062976;28;20690;-73
2021/07/21 03:01:48;;;;;;;28.40;25.58;;;;;;;14.61;nan;99248.38;2056586;28;20707;-74
2021/07/21 03:02:53;;;;;;;28.85;25.77;;;;;;;14.61;nan;99254.53;2055383;28;20229;-72
2021/07/21 03:03:55;;;;;;;28.75;25.65;;;;;;;14.61;nan;99251.84;2055406;28;20607;-73
2021/07/21 03:04:58;;;;;;;32.85;25.80;;;;;;;14.61;nan;99248.38;2055493;28;20236;-74
2021/07/21 03:06:07;;;;;;;29.95;25.35;;;;;;;14.59;nan;99255.94;2056191;28;20253;-73
2021/07/21 03:07:22;;;;;;;29.20;26.15;;;;;;;14.60;nan;99247.59;2057148;28;20270;-74
2021/07/21 03:08:27;;;;;;;28.20;25.40;;;;;;;14.60;nan;99246.78;2055307;28;20244;-73
2021/07/21 03:09:31;;;;;;;28.80;25.75;;;;;;;14.62;nan;99253.41;2055985;28;20221;-73
2021/07/21 03:10:39;;;;;;;28.45;25.52;;;;;;;14.58;nan;99246.28;2064623;28;20228;-73
2021/07/21 03:11:49;;;;;;;29.88;26.75;;;;;;;14.59;nan;99248.66;2064634;28;20703;-73
2021/07/21 03:12:54;;;;;;;31.05;25.95;;;;;;;14.58;nan;99254.34;2057397;28;20225;-73
2021/07/21 03:14:05;;;;;;;29.25;26.15;;;;;;;14.56;nan;99253.88;2058558;28;20224;-73
2021/07/21 03:15:20;;;;;;;29.33;26.13;;;;;;;14.54;nan;99251.53;2066582;28;20610;-74
2021/07/21 03:16:23;;;;;;;33.05;26.35;;;;;;;14.53;nan;99252.63;2073191;28;20752;-73
2021/07/21 03:17:31;;;;;;;28.25;25.45;;;;;;;14.57;nan;99258.94;2064727;28;20769;-73
2021/07/21 03:18:32;;;;;;;28.35;24.77;;;;;;;14.55;nan;99261.16;2064992;28;20303;-73
2021/07/21 03:19:38;;;;;;;27.15;24.35;;;;;;;14.57;nan;99252.78;2064910;28;20227;-73
2021/07/21 03:20:42;;;;;;;29.08;26.02;;;;;;;14.62;nan;99253.41;2065439;28;21252;-73
2021/07/21 03:21:46;;;;;;;28.25;25.23;;;;;;;14.64;nan;99247.72;2073206;28;20239;-73
2021/07/21 03:22:52;;;;;;;28.77;25.25;;;;;;;14.64;nan;99261.16;2064854;28;20561;-73
2021/07/21 03:23:56;;;;;;;27.65;25.00;;;;;;;14.61;nan;99257.22;2065250;28;20308;-73
2021/07/21 03:25:22;;;;;;;29.35;26.00;;;;;;;14.60;nan;99257.53;2064662;28;20713;-73
2021/07/21 03:26:24;;;;;;;33.95;25.52;;;;;;;14.59;nan;99255.94;2064946;28;20221;-73
2021/07/21 03:27:28;;;;;;;27.23;24.50;;;;;;;14.57;nan;99255.47;2064860;28;20228;-73
2021/07/21 03:29:06;;;;;;;29.45;25.30;;;;;;;14.54;nan;99259.59;2053478;28;20224;-73
2021/07/21 03:30:10;;;;;;;28.02;24.65;;;;;;;14.56;nan;99256.56;2064617;28;20232;-72
2021/07/21 03:31:25;;;;;;;28.13;24.98;;;;;;;14.53;nan;99258.00;2058323;28;20254;-73
2021/07/21 03:32:28;;;;;;;27.38;24.52;;;;;;;14.54;nan;99256.91;2064930;28;20694;-73
2021/07/21 03:33:34;;;;;;;28.75;25.77;;;;;;;14.54;nan;99256.91;2065320;28;20224;-73
2021/07/21 03:34:43;;;;;;;27.88;24.92;;;;;;;14.55;nan;99258.47;2064467;28;20228;-73
2021/07/21 03:35:48;;;;;;;27.80;24.23;;;;;;;14.56;nan;99259.25;2065313;28;20228;-73
2021/07/21 03:36:52;;;;;;;29.88;25.45;;;;;;;14.55;nan;99255.78;2064845;28;20248;-73
2021/07/21 03:38:12;;;;;;;27.75;24.83;;;;;;;14.60;nan;99252.16;2067391;28;20409;-73
2021/07/21 03:39:19;;;;;;;27.60;24.35;;;;;;;14.57;nan;99255.47;2064847;28;20228;-73
2021/07/21 03:40:39;;;;;;;29.40;24.25;;;;;;;14.54;nan;99259.59;2067010;28;20236;-73
2021/07/21 03:41:51;;;;;;;25.85;23.35;;;;;;;14.54;nan;99258.78;2073038;28;20228;-74
2021/07/21 03:42:53;;;;;;;27.02;24.15;;;;;;;14.53;nan;99258.00;2064317;28;20303;-73
2021/07/21 03:44:01;;;;;;;25.77;23.40;;;;;;;14.54;nan;99264.16;2057638;28;20221;-73
2021/07/21 03:45:04;;;;;;;29.35;24.52;;;;;;;14.53;nan;99260.69;2056742;28;20277;-74
2021/07/21 03:46:06;;;;;;;27.67;24.77;;;;;;;14.57;nan;99269.69;2057033;28;20230;-73
2021/07/21 03:47:09;;;;;;;29.50;24.42;;;;;;;14.59;nan;99266.66;2056600;28;20324;-72
2021/07/21 03:48:11;;;;;;;27.98;23.92;;;;;;;14.58;nan;99265.88;2056706;28;20267;-73
2021/07/21 03:49:31;;;;;;;26.92;24.30;;;;;;;14.63;nan;99259.56;2067263;28;20224;-73
2021/07/21 03:50:42;;;;;;;26.67;24.05;;;;;;;14.65;nan;99271.56;2064410;28;20618;-73
2021/07/21 03:51:44;;;;;;;28.67;25.10;;;;;;;14.66;nan;99262.41;2065078;28;20569;-73
2021/07/21 03:53:17;;;;;;;29.08;23.65;;;;;;;14.66;nan;99269.66;2072801;28;20224;-73
2021/07/21 03:54:20;;;;;;;27.02;24.15;;;;;;;14.66;nan;99261.63;2064633;28;20224;-74
2021/07/21 03:55:37;;;;;;;31.95;24.33;;;;;;;14.62;nan;99266.84;2064440;28;20231;-73
2021/07/21 03:56:44;;;;;;;27.08;24.13;;;;;;;14.61;nan;99265.28;2064180;28;20275;-74
2021/07/21 03:57:47;;;;;;;27.15;23.83;;;;;;;14.58;nan;99273.16;2056991;28;20631;-73
2021/07/21 03:58:49;;;;;;;33.17;24.60;;;;;;;14.62;nan;99276.78;2057007;28;20676;-73
2021/07/21 03:59:57;;;;;;;26.98;24.05;;;;;;;14.57;nan;99272.38;2065082;28;20244;-73
2021/07/21 04:00:58;;;;;;;29.30;23.65;;;;;;;14.55;nan;99279.94;2064596;28;20298;-73
2021/07/21 04:02:10;;;;;;;27.58;23.33;;;;;;;14.56;nan;99278.84;2064216;28;20294;-72
2021/07/21 04:03:12;;;;;;;25.45;22.83;;;;;;;14.60;nan;99279.81;2065028;28;20557;-73
2021/07/21 04:04:29;;;;;;;28.17;22.80;;;;;;;14.65;nan;99282.31;2064277;28;20246;-73
2021/07/21 04:05:31;;;;;;;25.25;22.55;;;;;;;14.62;nan;99280.28;2064769;28;20228;-73
2021/07/21 04:06:39;;;;;;;27.52;23.13;;;;;;;14.67;nan;99285.47;2064365;28;20692;-73
2021/07/21 04:08:00;;;;;;;26.45;23.20;;;;;;;14.66;nan;99286.56;2066925;28;20229;-73
2021/07/21 04:09:04;;;;;;;26.27;23.08;;;;;;;14.71;nan;99285.63;2064593;28;20225;-73
2021/07/21 04:10:09;;;;;;;25.92;23.35;;;;;;;14.70;nan;99286.75;2065002;28;20320;-73
2021/07/21 04:11:17;;;;;;;25.98;23.27;;;;;;;14.68;nan;99283.56;2064430;28;20229;-73
2021/07/21 04:12:19;;;;;;;26.38;23.60;;;;;;;14.71;nan;99288.31;2064874;28;20272;-73
2021/07/21 04:13:24;;;;;;;25.15;22.77;;;;;;;14.69;nan;99290.53;2073009;28;20216;-73
2021/07/21 04:14:43;;;;;;;25.08;22.67;;;;;;;14.69;nan;99288.66;2064357;28;20288;-73
2021/07/21 04:15:51;;;;;;;26.50;23.67;;;;;;;14.69;nan;99283.28;2057559;28;20288;-73
2021/07/21 04:16:54;;;;;;;26.77;22.63;;;;;;;14.71;nan;99296.38;2064247;28;20669;-73
2021/07/21 04:17:57;;;;;;;26.08;23.23;;;;;;;14.70;nan;99286.75;2072626;28;20250;-72
2021/07/21 04:19:01;;;;;;;26.02;23.45;;;;;;;14.73;nan;99293.38;2064221;28;20307;-74
2021/07/21 04:20:04;;;;;;;26.50;23.80;;;;;;;14.72;nan;99284.53;2064692;28;20251;-73
2021/07/21 04:21:09;;;;;;;27.17;24.30;;;;;;;14.77;nan;99289.75;2072716;28;20223;-74
2021/07/21 04:22:13;;;;;;;26.13;23.40;;;;;;;14.77;nan;99289.75;2063899;28;20224;-73
2021/07/21 04:23:22;;;;;;;25.13;22.83;;;;;;;14.77;nan;99283.56;2065448;28;20236;-73
2021/07/21 04:24:24;;;;;;;25.83;23.30;;;;;;;14.74;nan;99290.38;2064160;28;20266;-73
2021/07/21 04:25:27;;;;;;;25.60;23.10;;;;;;;14.73;nan;99285.31;2064483;28;20307;-73
2021/07/21 04:26:33;;;;;;;29.52;23.55;;;;;;;14.74;nan;99289.56;2065505;28;20703;-73
2021/07/21 04:27:38;;;;;;;25.33;22.80;;;;;;;14.75;nan;99285.78;2064631;28;20225;-73
2021/07/21 04:28:48;;;;;;;25.23;22.92;;;;;;;14.71;nan;99282.94;2064271;28;20228;-74
2021/07/21 04:29:51;;;;;;;25.23;22.67;;;;;;;14.74;nan;99289.56;2064442;28;20286;-73
2021/07/21 04:30:54;;;;;;;25.42;22.90;;;;;;;14.75;nan;99285.78;2072111;28;20731;-72
2021/07/21 04:31:56;;;;;;;26.88;23.98;;;;;;;14.75;nan;99291.94;2072393;28;20262;-73
2021/07/21 04:33:01;;;;;;;24.98;22.67;;;;;;;14.76;nan;99290.81;2064016;28;20598;-73
2021/07/21 04:34:07;;;;;;;25.35;22.67;;;;;;;14.78;nan;99291.31;2065075;28;20304;-73
2021/07/21 04:35:10;;;;;;;26.40;23.50;;;;;;;14.75;nan;99291.94;2072102;28;20228;-73
2021/07/21 04:36:17;;;;;;;28.52;23.15;;;;;;;14.80;nan;99288.31;2064536;28;20286;-73
2021/07/21 04:37:25;;;;;;;25.17;22.85;;;;;;;14.79;nan;99292.09;2064946;28;20228;-73
2021/07/21 04:38:37;;;;;;;30.27;23.58;;;;;;;14.81;nan;99297.94;2064027;28;20232;-72
2021/07/21 04:39:42;;;;;;;24.80;22.33;;;;;;;14.85;nan;99285.44;2064965;28;20232;-73
2021/07/21 04:41:01;;;;;;;29.27;22.17;;;;;;;14.87;nan;99294.78;2072843;28;20666;-73
2021/07/21 04:42:26;;;;;;;26.20;20.45;;;;;;;14.87;nan;99291.31;2063800;28;20224;-73
2021/07/21 04:43:27;;;;;;;23.52;21.52;;;;;;;14.88;nan;99304.41;2064274;28;20232;-73
2021/07/21 04:44:28;;;;;;;24.07;21.50;;;;;;;14.91;nan;99303.78;2064369;28;20324;-73
2021/07/21 04:45:30;;;;;;;25.05;22.60;;;;;;;14.90;nan;99304.09;2064202;28;20570;-73
2021/07/21 04:46:33;;;;;;;23.67;21.67;;;;;;;14.92;nan;99305.34;2064382;28;20248;-74
2021/07/21 04:47:39;;;;;;;25.70;22.92;;;;;;;14.98;nan;99306.78;2064080;28;20227;-73
2021/07/21 04:48:44;;;;;;;26.55;22.05;;;;;;;14.93;nan;99306.13;2064190;28;20245;-73
2021/07/21 04:49:57;;;;;;;24.50;22.20;;;;;;;14.94;nan;99308.53;2064011;28;20227;-73
2021/07/21 04:51:00;;;;;;;25.88;23.02;;;;;;;14.97;nan;99312.47;2056414;28;20225;-73
2021/07/21 04:52:03;;;;;;;25.83;23.10;;;;;;;14.98;nan;99300.63;2064551;28;20703;-73
2021/07/21 04:53:07;;;;;;;25.75;22.45;;;;;;;14.96;nan;99309.00;2064248;28;20679;-74
2021/07/21 04:54:07;;;;;;;25.27;22.65;;;;;;;14.99;nan;99318.31;2063797;28;20229;-73
2021/07/21 04:55:15;;;;;;;28.05;22.58;;;;;;;14.99;nan;99313.72;2064290;28;20609;-73
2021/07/21 04:56:16;;;;;;;27.15;22.55;;;;;;;15.00;nan;99317.19;2064182;28;20695;-73
2021/07/21 04:57:22;;;;;;;25.25;22.85;;;;;;;15.00;nan;99317.19;2064263;28;20237;-73
2021/07/21 04:58:36;;;;;;;31.02;24.08;;;;;;;14.98;nan;99314.03;2066489;28;20255;-74
2021/07/21 04:59:44;;;;;;;24.83;22.42;;;;;;;15.00;nan;99319.88;2072046;28;20220;-73
2021/07/21 05:00:45;;;;;;;26.27;23.50;;;;;;;15.04;nan;99317.38;2064266;28;20225;-74
2021/07/21 05:01:55;;;;;;;24.45;22.00;;;;;;;15.07;nan;99309.44;2056772;28;20304;-74
2021/07/21 05:02:56;;;;;;;24.63;22.38;;;;;;;15.07;nan;99325.56;2056510;28;20635;-73
2021/07/21 05:04:00;;;;;;;29.33;22.80;;;;;;;15.04;nan;99315.47;2064418;28;20667;-73
2021/07/21 05:05:17;;;;;;;25.48;22.15;;;;;;;15.02;nan;99317.66;2063878;28;20231;-73
2021/07/21 05:06:30;;;;;;;25.25;22.60;;;;;;;15.03;nan;99326.50;2063825;28;20224;-73
2021/07/21 05:07:32;;;;;;;25.77;23.08;;;;;;;14.99;nan;99319.09;2064412;28;20221;-73
2021/07/21 05:08:42;;;;;;;24.83;22.63;;;;;;;14.95;nan;99312.78;2063859;28;20247;-73
2021/07/21 05:10:04;;;;;;;25.55;22.90;;;;;;;14.96;nan;99319.75;2066399;28;20629;-73
2021/07/21 05:11:09;;;;;;;27.42;23.45;;;;;;;14.95;nan;99323.53;2063592;28;20561;-80
2021/07/21 05:12:11;;;;;;;24.57;21.90;;;;;;;15.01;nan;99320.66;2055330;28;20320;-75
2021/07/21 05:13:19;;;;;;;26.58;22.95;;;;;;;15.05;nan;99327.78;2056859;28;20283;-78
2021/07/21 05:14:21;;;;;;;25.58;22.83;;;;;;;15.01;nan;99328.72;2056120;28;20222;-77
2021/07/21 05:15:46;;;;;;;25.20;22.52;;;;;;;15.01;nan;99326.84;2055269;28;20253;-78
2021/07/21 05:16:53;;;;;;;25.55;22.58;;;;;;;15.07;nan;99328.25;2063442;28;20228;-75